sensor_id;sensor_type;location;lat;lon;timestamp;P1;durP1;ratioP1;P2;durP2;ratioP2
52268;SDS011;38224;50.950;4.100;2022-10-16T00:01:20;6.13;;;1.77;;
52268;SDS011;38224;50.950;4.100;2022-10-16T00:03:46;2.83;;;1.55;;
52268;SDS011;38224;50.950;4.100;2022-10-16T00:06:12;3.97;;;1.73;;
52268;SDS011;38224;50.950;4.100;2022-10-16T00:08:38;3.80;;;1.58;;
52268;SDS011;38224;50.950;4.100;2022-10-16T00:11:08;5.03;;;1.58;;
52268;SDS011;38224;50.950;4.100;2022-10-16T00:13:33;3.85;;;1.75;;
52268;SDS011;38224;50.950;4.100;2022-10-16T00:15:59;3.08;;;1.70;;
52268;SDS011;38224;50.950;4.100;2022-10-16T00:18:25;3.08;;;2.00;;
52268;SDS011;38224;50.950;4.100;2022-10-16T00:20:51;3.90;;;1.73;;
52268;SDS011;38224;50.950;4.100;2022-10-16T00:23:16;5.73;;;1.73;;
52268;SDS011;38224;50.950;4.100;2022-10-16T00:25:41;2.35;;;1.48;;
52268;SDS011;38224;50.950;4.100;2022-10-16T00:28:06;3.60;;;1.97;;
52268;SDS011;38224;50.950;4.100;2022-10-16T00:30:32;3.03;;;1.70;;
52268;SDS011;38224;50.950;4.100;2022-10-16T00:32:57;4.88;;;1.50;;
52268;SDS011;38224;50.950;4.100;2022-10-16T00:35:22;7.00;;;1.50;;
52268;SDS011;38224;50.950;4.100;2022-10-16T00:37:47;3.47;;;1.50;;
52268;SDS011;38224;50.950;4.100;2022-10-16T00:40:13;3.90;;;1.40;;
52268;SDS011;38224;50.950;4.100;2022-10-16T00:42:38;8.97;;;1.80;;
52268;SDS011;38224;50.950;4.100;2022-10-16T00:45:03;3.90;;;2.20;;
52268;SDS011;38224;50.950;4.100;2022-10-16T00:49:58;4.97;;;1.37;;
52268;SDS011;38224;50.950;4.100;2022-10-16T00:52:25;4.53;;;1.73;;
52268;SDS011;38224;50.950;4.100;2022-10-16T00:54:50;4.50;;;1.60;;
52268;SDS011;38224;50.950;4.100;2022-10-16T00:57:17;4.85;;;1.80;;
52268;SDS011;38224;50.950;4.100;2022-10-16T00:59:42;3.97;;;1.30;;
52268;SDS011;38224;50.950;4.100;2022-10-16T01:02:10;4.63;;;1.87;;
52268;SDS011;38224;50.950;4.100;2022-10-16T01:04:37;3.08;;;1.83;;
52268;SDS011;38224;50.950;4.100;2022-10-16T01:15:06;3.55;;;1.60;;
52268;SDS011;38224;50.950;4.100;2022-10-16T01:18:16;3.25;;;1.70;;
52268;SDS011;38224;50.950;4.100;2022-10-16T01:20:30;5.97;;;1.80;;
52268;SDS011;38224;50.950;4.100;2022-10-16T01:28:17;2.88;;;2.03;;
52268;SDS011;38224;50.950;4.100;2022-10-16T01:30:43;5.20;;;1.52;;
52268;SDS011;38224;50.950;4.100;2022-10-16T01:33:12;4.60;;;1.52;;
52268;SDS011;38224;50.950;4.100;2022-10-16T01:35:43;5.47;;;2.15;;
52268;SDS011;38224;50.950;4.100;2022-10-16T01:38:21;4.82;;;2.50;;
52268;SDS011;38224;50.950;4.100;2022-10-16T01:40:52;3.47;;;1.70;;
52268;SDS011;38224;50.950;4.100;2022-10-16T01:43:25;3.60;;;2.10;;
52268;SDS011;38224;50.950;4.100;2022-10-16T01:45:52;4.50;;;1.80;;
52268;SDS011;38224;50.950;4.100;2022-10-16T01:48:17;3.13;;;1.83;;
52268;SDS011;38224;50.950;4.100;2022-10-16T01:50:44;2.67;;;1.65;;
52268;SDS011;38224;50.950;4.100;2022-10-16T01:53:13;3.65;;;2.08;;
52268;SDS011;38224;50.950;4.100;2022-10-16T01:55:41;3.90;;;2.03;;
52268;SDS011;38224;50.950;4.100;2022-10-16T01:58:10;5.97;;;2.20;;
52268;SDS011;38224;50.950;4.100;2022-10-16T02:00:37;6.57;;;2.10;;
52268;SDS011;38224;50.950;4.100;2022-10-16T02:03:02;5.10;;;2.85;;
52268;SDS011;38224;50.950;4.100;2022-10-16T02:05:39;6.18;;;2.47;;
52268;SDS011;38224;50.950;4.100;2022-10-16T02:08:06;4.10;;;2.20;;
52268;SDS011;38224;50.950;4.100;2022-10-16T02:10:31;9.05;;;2.20;;
52268;SDS011;38224;50.950;4.100;2022-10-16T02:13:02;7.63;;;2.25;;
52268;SDS011;38224;50.950;4.100;2022-10-16T02:15:28;6.15;;;2.60;;
52268;SDS011;38224;50.950;4.100;2022-10-16T02:17:54;7.18;;;2.47;;
52268;SDS011;38224;50.950;4.100;2022-10-16T02:20:20;2.70;;;2.33;;
52268;SDS011;38224;50.950;4.100;2022-10-16T02:22:48;8.25;;;2.53;;
52268;SDS011;38224;50.950;4.100;2022-10-16T02:25:17;6.03;;;2.60;;
52268;SDS011;38224;50.950;4.100;2022-10-16T02:30:17;6.45;;;2.20;;
52268;SDS011;38224;50.950;4.100;2022-10-16T02:32:44;4.93;;;2.40;;
52268;SDS011;38224;50.950;4.100;2022-10-16T02:35:11;8.25;;;2.75;;
52268;SDS011;38224;50.950;4.100;2022-10-16T02:37:36;6.13;;;2.70;;
52268;SDS011;38224;50.950;4.100;2022-10-16T02:40:03;4.72;;;2.40;;
52268;SDS011;38224;50.950;4.100;2022-10-16T02:42:37;5.68;;;2.25;;
52268;SDS011;38224;50.950;4.100;2022-10-16T02:45:03;5.47;;;2.38;;
52268;SDS011;38224;50.950;4.100;2022-10-16T02:47:28;8.65;;;2.67;;
52268;SDS011;38224;50.950;4.100;2022-10-16T02:49:54;6.80;;;2.30;;
52268;SDS011;38224;50.950;4.100;2022-10-16T02:52:19;4.60;;;2.63;;
52268;SDS011;38224;50.950;4.100;2022-10-16T02:54:44;7.10;;;2.33;;
52268;SDS011;38224;50.950;4.100;2022-10-16T02:57:09;8.95;;;2.30;;
52268;SDS011;38224;50.950;4.100;2022-10-16T02:59:34;8.93;;;2.70;;
52268;SDS011;38224;50.950;4.100;2022-10-16T03:02:00;12.07;;;2.97;;
52268;SDS011;38224;50.950;4.100;2022-10-16T03:04:25;4.23;;;2.07;;
52268;SDS011;38224;50.950;4.100;2022-10-16T03:06:50;4.00;;;1.90;;
52268;SDS011;38224;50.950;4.100;2022-10-16T03:09:15;6.43;;;2.63;;
52268;SDS011;38224;50.950;4.100;2022-10-16T03:11:41;5.17;;;2.90;;
52268;SDS011;38224;50.950;4.100;2022-10-16T03:14:06;4.17;;;1.90;;
52268;SDS011;38224;50.950;4.100;2022-10-16T03:16:31;4.15;;;2.58;;
52268;SDS011;38224;50.950;4.100;2022-10-16T03:18:56;6.15;;;2.55;;
52268;SDS011;38224;50.950;4.100;2022-10-16T03:21:22;7.33;;;2.97;;
52268;SDS011;38224;50.950;4.100;2022-10-16T03:23:47;6.83;;;3.00;;
52268;SDS011;38224;50.950;4.100;2022-10-16T03:26:12;4.53;;;2.97;;
52268;SDS011;38224;50.950;4.100;2022-10-16T03:28:37;6.97;;;2.57;;
52268;SDS011;38224;50.950;4.100;2022-10-16T03:31:02;6.93;;;2.60;;
52268;SDS011;38224;50.950;4.100;2022-10-16T03:33:28;6.03;;;2.83;;
52268;SDS011;38224;50.950;4.100;2022-10-16T03:35:53;3.47;;;2.73;;
52268;SDS011;38224;50.950;4.100;2022-10-16T03:38:19;6.40;;;3.10;;
52268;SDS011;38224;50.950;4.100;2022-10-16T03:40:45;5.00;;;3.10;;
52268;SDS011;38224;50.950;4.100;2022-10-16T03:43:10;5.37;;;2.90;;
52268;SDS011;38224;50.950;4.100;2022-10-16T03:45:35;6.93;;;2.77;;
52268;SDS011;38224;50.950;4.100;2022-10-16T03:48:00;5.17;;;3.00;;
52268;SDS011;38224;50.950;4.100;2022-10-16T03:50:27;5.75;;;2.90;;
52268;SDS011;38224;50.950;4.100;2022-10-16T03:52:52;6.40;;;2.63;;
52268;SDS011;38224;50.950;4.100;2022-10-16T03:55:17;8.57;;;2.93;;
52268;SDS011;38224;50.950;4.100;2022-10-16T03:57:43;7.17;;;3.00;;
52268;SDS011;38224;50.950;4.100;2022-10-16T04:00:08;5.27;;;2.33;;
52268;SDS011;38224;50.950;4.100;2022-10-16T04:02:34;5.68;;;2.72;;
52268;SDS011;38224;50.950;4.100;2022-10-16T04:04:59;7.35;;;2.83;;
52268;SDS011;38224;50.950;4.100;2022-10-16T04:07:24;6.45;;;2.75;;
52268;SDS011;38224;50.950;4.100;2022-10-16T04:09:50;7.07;;;2.73;;
52268;SDS011;38224;50.950;4.100;2022-10-16T04:12:17;11.40;;;3.55;;
52268;SDS011;38224;50.950;4.100;2022-10-16T04:14:42;11.77;;;3.87;;
52268;SDS011;38224;50.950;4.100;2022-10-16T04:17:07;4.90;;;2.60;;
52268;SDS011;38224;50.950;4.100;2022-10-16T04:19:32;7.93;;;3.50;;
52268;SDS011;38224;50.950;4.100;2022-10-16T04:21:57;9.57;;;3.23;;
52268;SDS011;38224;50.950;4.100;2022-10-16T04:24:23;8.00;;;3.20;;
52268;SDS011;38224;50.950;4.100;2022-10-16T04:26:48;10.87;;;3.07;;
52268;SDS011;38224;50.950;4.100;2022-10-16T04:29:13;13.13;;;3.17;;
52268;SDS011;38224;50.950;4.100;2022-10-16T04:31:38;5.57;;;2.77;;
52268;SDS011;38224;50.950;4.100;2022-10-16T04:34:03;8.23;;;3.70;;
52268;SDS011;38224;50.950;4.100;2022-10-16T04:36:29;8.70;;;3.10;;
52268;SDS011;38224;50.950;4.100;2022-10-16T04:38:55;6.37;;;3.37;;
52268;SDS011;38224;50.950;4.100;2022-10-16T04:41:20;9.50;;;4.57;;
52268;SDS011;38224;50.950;4.100;2022-10-16T04:43:46;7.63;;;3.93;;
52268;SDS011;38224;50.950;4.100;2022-10-16T04:46:11;6.33;;;3.10;;
52268;SDS011;38224;50.950;4.100;2022-10-16T04:48:36;8.25;;;3.20;;
52268;SDS011;38224;50.950;4.100;2022-10-16T04:51:01;8.57;;;3.70;;
52268;SDS011;38224;50.950;4.100;2022-10-16T04:53:27;8.03;;;3.40;;
52268;SDS011;38224;50.950;4.100;2022-10-16T04:55:52;4.90;;;2.83;;
52268;SDS011;38224;50.950;4.100;2022-10-16T04:58:17;6.50;;;2.80;;
52268;SDS011;38224;50.950;4.100;2022-10-16T05:00:43;8.57;;;3.58;;
52268;SDS011;38224;50.950;4.100;2022-10-16T05:03:09;5.35;;;3.53;;
52268;SDS011;38224;50.950;4.100;2022-10-16T05:05:35;10.57;;;3.78;;
52268;SDS011;38224;50.950;4.100;2022-10-16T05:08:00;8.85;;;2.97;;
52268;SDS011;38224;50.950;4.100;2022-10-16T05:10:26;7.10;;;3.28;;
52268;SDS011;38224;50.950;4.100;2022-10-16T05:12:51;8.20;;;3.83;;
52268;SDS011;38224;50.950;4.100;2022-10-16T05:15:16;6.90;;;3.13;;
52268;SDS011;38224;50.950;4.100;2022-10-16T05:17:42;6.18;;;3.22;;
52268;SDS011;38224;50.950;4.100;2022-10-16T05:20:07;4.35;;;2.72;;
52268;SDS011;38224;50.950;4.100;2022-10-16T05:22:33;6.43;;;2.58;;
52268;SDS011;38224;50.950;4.100;2022-10-16T05:24:58;8.05;;;2.70;;
52268;SDS011;38224;50.950;4.100;2022-10-16T05:27:24;6.13;;;2.40;;
52268;SDS011;38224;50.950;4.100;2022-10-16T05:29:49;6.43;;;3.33;;
52268;SDS011;38224;50.950;4.100;2022-10-16T05:32:15;6.40;;;2.90;;
52268;SDS011;38224;50.950;4.100;2022-10-16T05:34:40;7.28;;;2.60;;
52268;SDS011;38224;50.950;4.100;2022-10-16T05:37:06;4.03;;;2.65;;
52268;SDS011;38224;50.950;4.100;2022-10-16T05:39:31;5.37;;;2.77;;
52268;SDS011;38224;50.950;4.100;2022-10-16T05:41:56;6.65;;;2.70;;
52268;SDS011;38224;50.950;4.100;2022-10-16T05:44:21;5.77;;;3.57;;
52268;SDS011;38224;50.950;4.100;2022-10-16T05:46:47;7.57;;;3.37;;
52268;SDS011;38224;50.950;4.100;2022-10-16T05:49:12;7.00;;;2.93;;
52268;SDS011;38224;50.950;4.100;2022-10-16T05:51:37;5.47;;;3.00;;
52268;SDS011;38224;50.950;4.100;2022-10-16T05:54:02;7.93;;;3.67;;
52268;SDS011;38224;50.950;4.100;2022-10-16T05:56:28;6.30;;;2.90;;
52268;SDS011;38224;50.950;4.100;2022-10-16T05:58:53;7.05;;;3.08;;
52268;SDS011;38224;50.950;4.100;2022-10-16T06:01:18;6.43;;;3.67;;
52268;SDS011;38224;50.950;4.100;2022-10-16T06:03:45;7.07;;;3.78;;
52268;SDS011;38224;50.950;4.100;2022-10-16T06:06:11;7.80;;;2.90;;
52268;SDS011;38224;50.950;4.100;2022-10-16T06:08:37;6.88;;;3.47;;
52268;SDS011;38224;50.950;4.100;2022-10-16T06:11:09;6.13;;;3.05;;
52268;SDS011;38224;50.950;4.100;2022-10-16T06:13:36;9.77;;;2.92;;
52268;SDS011;38224;50.950;4.100;2022-10-16T06:16:02;6.18;;;3.30;;
52268;SDS011;38224;50.950;4.100;2022-10-16T06:18:28;7.72;;;3.00;;
52268;SDS011;38224;50.950;4.100;2022-10-16T06:20:54;5.82;;;3.10;;
52268;SDS011;38224;50.950;4.100;2022-10-16T06:23:19;10.35;;;3.53;;
52268;SDS011;38224;50.950;4.100;2022-10-16T06:25:45;14.00;;;3.47;;
52268;SDS011;38224;50.950;4.100;2022-10-16T06:28:10;8.57;;;3.53;;
52268;SDS011;38224;50.950;4.100;2022-10-16T06:30:35;4.70;;;2.80;;
52268;SDS011;38224;50.950;4.100;2022-10-16T06:33:00;6.67;;;3.40;;
52268;SDS011;38224;50.950;4.100;2022-10-16T06:35:25;5.37;;;3.10;;
52268;SDS011;38224;50.950;4.100;2022-10-16T06:37:52;5.70;;;3.23;;
52268;SDS011;38224;50.950;4.100;2022-10-16T06:40:17;5.65;;;3.38;;
52268;SDS011;38224;50.950;4.100;2022-10-16T06:42:42;9.20;;;3.13;;
52268;SDS011;38224;50.950;4.100;2022-10-16T06:45:08;7.30;;;3.08;;
52268;SDS011;38224;50.950;4.100;2022-10-16T06:47:33;7.93;;;3.20;;
52268;SDS011;38224;50.950;4.100;2022-10-16T06:49:59;5.53;;;3.10;;
52268;SDS011;38224;50.950;4.100;2022-10-16T06:52:24;8.50;;;3.40;;
52268;SDS011;38224;50.950;4.100;2022-10-16T06:54:49;7.30;;;3.30;;
52268;SDS011;38224;50.950;4.100;2022-10-16T06:57:15;10.77;;;3.55;;
52268;SDS011;38224;50.950;4.100;2022-10-16T06:59:40;6.65;;;3.35;;
52268;SDS011;38224;50.950;4.100;2022-10-16T07:02:05;3.90;;;2.70;;
52268;SDS011;38224;50.950;4.100;2022-10-16T07:04:32;11.02;;;4.05;;
52268;SDS011;38224;50.950;4.100;2022-10-16T07:06:57;5.67;;;3.20;;
52268;SDS011;38224;50.950;4.100;2022-10-16T07:09:22;5.10;;;3.07;;
52268;SDS011;38224;50.950;4.100;2022-10-16T07:11:47;8.07;;;3.73;;
52268;SDS011;38224;50.950;4.100;2022-10-16T07:14:17;10.63;;;4.00;;
52268;SDS011;38224;50.950;4.100;2022-10-16T07:16:42;7.55;;;3.40;;
52268;SDS011;38224;50.950;4.100;2022-10-16T07:19:08;8.40;;;3.08;;
52268;SDS011;38224;50.950;4.100;2022-10-16T07:21:33;9.18;;;3.17;;
52268;SDS011;38224;50.950;4.100;2022-10-16T07:24:03;7.03;;;3.67;;
52268;SDS011;38224;50.950;4.100;2022-10-16T07:26:29;6.57;;;2.70;;
52268;SDS011;38224;50.950;4.100;2022-10-16T07:28:55;8.32;;;2.80;;
52268;SDS011;38224;50.950;4.100;2022-10-16T07:31:20;5.80;;;3.00;;
52268;SDS011;38224;50.950;4.100;2022-10-16T07:33:46;7.80;;;2.85;;
52268;SDS011;38224;50.950;4.100;2022-10-16T07:36:13;7.90;;;2.80;;
52268;SDS011;38224;50.950;4.100;2022-10-16T07:38:38;8.45;;;2.60;;
52268;SDS011;38224;50.950;4.100;2022-10-16T07:41:05;6.43;;;2.70;;
52268;SDS011;38224;50.950;4.100;2022-10-16T07:43:30;6.18;;;2.50;;
52268;SDS011;38224;50.950;4.100;2022-10-16T07:45:56;6.07;;;2.60;;
52268;SDS011;38224;50.950;4.100;2022-10-16T07:48:21;12.07;;;2.88;;
52268;SDS011;38224;50.950;4.100;2022-10-16T07:50:47;9.55;;;2.72;;
52268;SDS011;38224;50.950;4.100;2022-10-16T07:53:12;7.45;;;3.10;;
52268;SDS011;38224;50.950;4.100;2022-10-16T07:55:38;5.40;;;2.45;;
52268;SDS011;38224;50.950;4.100;2022-10-16T07:58:04;4.90;;;2.47;;
52268;SDS011;38224;50.950;4.100;2022-10-16T08:00:29;11.88;;;2.28;;
52268;SDS011;38224;50.950;4.100;2022-10-16T08:02:56;6.78;;;2.15;;
52268;SDS011;38224;50.950;4.100;2022-10-16T08:05:21;6.70;;;1.92;;
52268;SDS011;38224;50.950;4.100;2022-10-16T08:07:49;4.63;;;1.77;;
52268;SDS011;38224;50.950;4.100;2022-10-16T08:10:18;4.80;;;2.03;;
52268;SDS011;38224;50.950;4.100;2022-10-16T08:12:44;6.55;;;1.65;;
52268;SDS011;38224;50.950;4.100;2022-10-16T08:15:09;4.50;;;1.80;;
52268;SDS011;38224;50.950;4.100;2022-10-16T08:17:35;4.75;;;1.60;;
52268;SDS011;38224;50.950;4.100;2022-10-16T08:20:00;4.38;;;1.90;;
52268;SDS011;38224;50.950;4.100;2022-10-16T08:22:25;4.22;;;1.65;;
52268;SDS011;38224;50.950;4.100;2022-10-16T08:24:51;6.77;;;2.00;;
52268;SDS011;38224;50.950;4.100;2022-10-16T08:27:16;6.43;;;2.07;;
52268;SDS011;38224;50.950;4.100;2022-10-16T08:29:41;6.20;;;1.92;;
52268;SDS011;38224;50.950;4.100;2022-10-16T08:32:07;3.73;;;1.50;;
52268;SDS011;38224;50.950;4.100;2022-10-16T08:34:32;5.23;;;1.77;;
52268;SDS011;38224;50.950;4.100;2022-10-16T08:36:57;5.70;;;1.57;;
52268;SDS011;38224;50.950;4.100;2022-10-16T08:39:22;4.23;;;1.33;;
52268;SDS011;38224;50.950;4.100;2022-10-16T08:49:41;8.20;;;1.80;;
52268;SDS011;38224;50.950;4.100;2022-10-16T08:52:10;7.43;;;1.88;;
52268;SDS011;38224;50.950;4.100;2022-10-16T08:54:36;8.55;;;2.83;;
52268;SDS011;38224;50.950;4.100;2022-10-16T08:57:17;5.40;;;1.92;;
52268;SDS011;38224;50.950;4.100;2022-10-16T08:59:43;8.50;;;1.88;;
52268;SDS011;38224;50.950;4.100;2022-10-16T09:10:44;4.45;;;1.40;;
52268;SDS011;38224;50.950;4.100;2022-10-16T09:13:16;4.68;;;1.70;;
52268;SDS011;38224;50.950;4.100;2022-10-16T09:15:46;3.67;;;1.80;;
52268;SDS011;38224;50.950;4.100;2022-10-16T09:18:37;6.72;;;1.63;;
52268;SDS011;38224;50.950;4.100;2022-10-16T09:21:05;9.13;;;1.70;;
52268;SDS011;38224;50.950;4.100;2022-10-16T09:23:35;5.03;;;1.80;;
52268;SDS011;38224;50.950;4.100;2022-10-16T09:26:01;6.10;;;1.63;;
52268;SDS011;38224;50.950;4.100;2022-10-16T09:28:27;5.53;;;1.88;;
52268;SDS011;38224;50.950;4.100;2022-10-16T09:30:52;3.83;;;1.53;;
52268;SDS011;38224;50.950;4.100;2022-10-16T09:33:19;7.45;;;1.83;;
52268;SDS011;38224;50.950;4.100;2022-10-16T09:35:51;8.60;;;1.48;;
52268;SDS011;38224;50.950;4.100;2022-10-16T09:38:22;6.70;;;1.80;;
52268;SDS011;38224;50.950;4.100;2022-10-16T09:40:47;7.35;;;1.80;;
52268;SDS011;38224;50.950;4.100;2022-10-16T09:43:20;5.43;;;1.90;;
52268;SDS011;38224;50.950;4.100;2022-10-16T09:46:00;3.72;;;1.13;;
52268;SDS011;38224;50.950;4.100;2022-10-16T09:48:59;5.25;;;1.48;;
52268;SDS011;38224;50.950;4.100;2022-10-16T09:51:25;6.10;;;2.20;;
52268;SDS011;38224;50.950;4.100;2022-10-16T09:53:54;6.97;;;2.08;;
52268;SDS011;38224;50.950;4.100;2022-10-16T09:56:21;3.78;;;1.70;;
52268;SDS011;38224;50.950;4.100;2022-10-16T09:58:51;4.55;;;1.67;;
52268;SDS011;38224;50.950;4.100;2022-10-16T10:01:17;5.13;;;1.92;;
52268;SDS011;38224;50.950;4.100;2022-10-16T10:03:42;6.67;;;1.57;;
52268;SDS011;38224;50.950;4.100;2022-10-16T10:06:16;7.07;;;1.88;;
52268;SDS011;38224;50.950;4.100;2022-10-16T10:08:52;3.42;;;1.35;;
52268;SDS011;38224;50.950;4.100;2022-10-16T10:11:17;5.90;;;1.48;;
52268;SDS011;38224;50.950;4.100;2022-10-16T10:13:43;4.40;;;1.70;;
52268;SDS011;38224;50.950;4.100;2022-10-16T10:16:08;4.50;;;1.50;;
52268;SDS011;38224;50.950;4.100;2022-10-16T10:18:33;3.75;;;1.10;;
52268;SDS011;38224;50.950;4.100;2022-10-16T10:20:59;8.53;;;1.77;;
52268;SDS011;38224;50.950;4.100;2022-10-16T10:23:25;5.80;;;1.52;;
52268;SDS011;38224;50.950;4.100;2022-10-16T10:36:29;5.67;;;1.90;;
52268;SDS011;38224;50.950;4.100;2022-10-16T10:39:04;7.60;;;1.55;;
52268;SDS011;38224;50.950;4.100;2022-10-16T10:44:03;5.00;;;1.67;;
52268;SDS011;38224;50.950;4.100;2022-10-16T10:49:06;7.00;;;1.40;;
52268;SDS011;38224;50.950;4.100;2022-10-16T10:54:13;7.03;;;1.88;;
52268;SDS011;38224;50.950;4.100;2022-10-16T11:01:41;6.40;;;2.10;;
52268;SDS011;38224;50.950;4.100;2022-10-16T11:06:41;8.45;;;2.50;;
52268;SDS011;38224;50.950;4.100;2022-10-16T11:11:52;5.80;;;1.70;;
52268;SDS011;38224;50.950;4.100;2022-10-16T11:14:21;7.25;;;1.95;;
52268;SDS011;38224;50.950;4.100;2022-10-16T11:21:51;5.03;;;1.70;;
52268;SDS011;38224;50.950;4.100;2022-10-16T11:24:21;6.22;;;1.40;;
52268;SDS011;38224;50.950;4.100;2022-10-16T11:26:48;7.70;;;1.63;;
52268;SDS011;38224;50.950;4.100;2022-10-16T11:29:25;8.27;;;1.42;;
52268;SDS011;38224;50.950;4.100;2022-10-16T11:31:55;5.72;;;1.48;;
52268;SDS011;38224;50.950;4.100;2022-10-16T11:34:44;9.25;;;1.83;;
52268;SDS011;38224;50.950;4.100;2022-10-16T11:37:14;12.77;;;1.92;;
52268;SDS011;38224;50.950;4.100;2022-10-16T11:39:41;6.45;;;1.60;;
52268;SDS011;38224;50.950;4.100;2022-10-16T11:42:11;6.75;;;1.70;;
52268;SDS011;38224;50.950;4.100;2022-10-16T11:47:19;4.75;;;1.35;;
52268;SDS011;38224;50.950;4.100;2022-10-16T11:49:46;7.47;;;1.55;;
52268;SDS011;38224;50.950;4.100;2022-10-16T11:57:19;3.73;;;1.33;;
52268;SDS011;38224;50.950;4.100;2022-10-16T11:59:51;5.25;;;1.23;;
52268;SDS011;38224;50.950;4.100;2022-10-16T12:02:28;5.30;;;1.67;;
52268;SDS011;38224;50.950;4.100;2022-10-16T12:05:05;3.22;;;1.20;;
52268;SDS011;38224;50.950;4.100;2022-10-16T12:07:32;4.35;;;1.30;;
52268;SDS011;38224;50.950;4.100;2022-10-16T12:10:09;6.63;;;1.63;;
52268;SDS011;38224;50.950;4.100;2022-10-16T12:15:18;4.83;;;1.50;;
52268;SDS011;38224;50.950;4.100;2022-10-16T12:17:43;5.65;;;1.38;;
52268;SDS011;38224;50.950;4.100;2022-10-16T12:22:40;6.90;;;1.95;;
52268;SDS011;38224;50.950;4.100;2022-10-16T12:25:17;4.93;;;1.55;;
52268;SDS011;38224;50.950;4.100;2022-10-16T12:27:44;4.45;;;1.55;;
52268;SDS011;38224;50.950;4.100;2022-10-16T12:30:15;7.40;;;1.60;;
52268;SDS011;38224;50.950;4.100;2022-10-16T12:32:45;4.22;;;1.50;;
52268;SDS011;38224;50.950;4.100;2022-10-16T12:35:28;7.50;;;1.58;;
52268;SDS011;38224;50.950;4.100;2022-10-16T12:38:03;9.63;;;1.20;;
52268;SDS011;38224;50.950;4.100;2022-10-16T12:40:31;4.22;;;1.38;;
52268;SDS011;38224;50.950;4.100;2022-10-16T12:42:57;6.22;;;1.45;;
52268;SDS011;38224;50.950;4.100;2022-10-16T12:47:48;7.87;;;2.53;;
52268;SDS011;38224;50.950;4.100;2022-10-16T12:50:24;4.70;;;1.75;;
52268;SDS011;38224;50.950;4.100;2022-10-16T12:52:50;3.92;;;1.35;;
52268;SDS011;38224;50.950;4.100;2022-10-16T12:55:19;9.33;;;1.40;;
52268;SDS011;38224;50.950;4.100;2022-10-16T12:57:57;5.78;;;1.15;;
52268;SDS011;38224;50.950;4.100;2022-10-16T13:00:45;3.55;;;1.60;;
52268;SDS011;38224;50.950;4.100;2022-10-16T13:08:38;8.40;;;1.90;;
52268;SDS011;38224;50.950;4.100;2022-10-16T13:13:36;4.93;;;1.70;;
52268;SDS011;38224;50.950;4.100;2022-10-16T13:29:10;3.95;;;1.30;;
52268;SDS011;38224;50.950;4.100;2022-10-16T13:31:37;5.05;;;1.10;;
52268;SDS011;38224;50.950;4.100;2022-10-16T13:34:03;4.55;;;1.50;;
52268;SDS011;38224;50.950;4.100;2022-10-16T13:36:33;6.03;;;1.38;;
52268;SDS011;38224;50.950;4.100;2022-10-16T13:39:06;4.97;;;1.10;;
52268;SDS011;38224;50.950;4.100;2022-10-16T13:41:34;3.10;;;1.00;;
52268;SDS011;38224;50.950;4.100;2022-10-16T13:43:59;4.05;;;1.30;;
52268;SDS011;38224;50.950;4.100;2022-10-16T13:46:25;3.50;;;1.23;;
52268;SDS011;38224;50.950;4.100;2022-10-16T13:51:22;7.32;;;1.20;;
52268;SDS011;38224;50.950;4.100;2022-10-16T13:53:47;3.78;;;1.42;;
52268;SDS011;38224;50.950;4.100;2022-10-16T13:56:14;4.32;;;1.25;;
52268;SDS011;38224;50.950;4.100;2022-10-16T13:58:40;7.25;;;1.30;;
52268;SDS011;38224;50.950;4.100;2022-10-16T14:01:11;4.35;;;1.20;;
52268;SDS011;38224;50.950;4.100;2022-10-16T14:03:39;4.50;;;1.40;;
52268;SDS011;38224;50.950;4.100;2022-10-16T14:06:06;3.75;;;0.93;;
52268;SDS011;38224;50.950;4.100;2022-10-16T14:08:36;4.22;;;1.48;;
52268;SDS011;38224;50.950;4.100;2022-10-16T14:11:06;4.53;;;1.33;;
52268;SDS011;38224;50.950;4.100;2022-10-16T14:13:32;4.27;;;1.10;;
52268;SDS011;38224;50.950;4.100;2022-10-16T14:15:59;8.85;;;1.38;;
52268;SDS011;38224;50.950;4.100;2022-10-16T14:18:27;3.53;;;1.25;;
52268;SDS011;38224;50.950;4.100;2022-10-16T14:20:52;8.40;;;1.50;;
52268;SDS011;38224;50.950;4.100;2022-10-16T14:23:19;6.22;;;1.40;;
52268;SDS011;38224;50.950;4.100;2022-10-16T14:25:45;3.85;;;1.33;;
52268;SDS011;38224;50.950;4.100;2022-10-16T14:30:47;7.45;;;1.30;;
52268;SDS011;38224;50.950;4.100;2022-10-16T14:33:24;3.72;;;1.30;;
52268;SDS011;38224;50.950;4.100;2022-10-16T14:36:00;7.45;;;1.52;;
52268;SDS011;38224;50.950;4.100;2022-10-16T14:38:26;4.88;;;1.30;;
52268;SDS011;38224;50.950;4.100;2022-10-16T14:40:51;7.57;;;1.48;;
52268;SDS011;38224;50.950;4.100;2022-10-16T14:43:21;7.15;;;1.35;;
52268;SDS011;38224;50.950;4.100;2022-10-16T14:45:51;4.97;;;1.27;;
52268;SDS011;38224;50.950;4.100;2022-10-16T14:48:17;9.25;;;1.52;;
52268;SDS011;38224;50.950;4.100;2022-10-16T14:50:42;4.38;;;1.38;;
52268;SDS011;38224;50.950;4.100;2022-10-16T14:53:10;5.28;;;1.67;;
52268;SDS011;38224;50.950;4.100;2022-10-16T14:55:36;4.35;;;1.25;;
52268;SDS011;38224;50.950;4.100;2022-10-16T14:58:01;3.83;;;1.42;;
52268;SDS011;38224;50.950;4.100;2022-10-16T15:00:27;3.23;;;1.30;;
52268;SDS011;38224;50.950;4.100;2022-10-16T15:02:52;3.83;;;1.50;;
52268;SDS011;38224;50.950;4.100;2022-10-16T15:05:24;9.03;;;1.83;;
52268;SDS011;38224;50.950;4.100;2022-10-16T15:07:51;9.73;;;1.63;;
52268;SDS011;38224;50.950;4.100;2022-10-16T15:10:18;4.00;;;1.40;;
52268;SDS011;38224;50.950;4.100;2022-10-16T15:12:44;7.32;;;1.80;;
52268;SDS011;38224;50.950;4.100;2022-10-16T15:17:47;3.63;;;1.75;;
52268;SDS011;38224;50.950;4.100;2022-10-16T15:20:14;5.10;;;2.00;;
52268;SDS011;38224;50.950;4.100;2022-10-16T15:22:39;7.13;;;2.25;;
52268;SDS011;38224;50.950;4.100;2022-10-16T15:25:38;7.40;;;2.90;;
52268;SDS011;38224;50.950;4.100;2022-10-16T15:27:57;4.25;;;1.90;;
52268;SDS011;38224;50.950;4.100;2022-10-16T15:30:22;7.78;;;2.13;;
52268;SDS011;38224;50.950;4.100;2022-10-16T15:32:48;6.77;;;2.00;;
52268;SDS011;38224;50.950;4.100;2022-10-16T15:35:13;11.20;;;2.53;;
52268;SDS011;38224;50.950;4.100;2022-10-16T15:37:38;8.33;;;2.70;;
52268;SDS011;38224;50.950;4.100;2022-10-16T15:40:04;10.23;;;3.00;;
52268;SDS011;38224;50.950;4.100;2022-10-16T15:42:29;8.40;;;3.03;;
52268;SDS011;38224;50.950;4.100;2022-10-16T15:44:54;10.17;;;2.73;;
52268;SDS011;38224;50.950;4.100;2022-10-16T15:47:20;8.13;;;2.30;;
52268;SDS011;38224;50.950;4.100;2022-10-16T15:49:45;6.67;;;2.27;;
52268;SDS011;38224;50.950;4.100;2022-10-16T15:52:10;6.07;;;2.42;;
52268;SDS011;38224;50.950;4.100;2022-10-16T15:54:36;5.23;;;2.10;;
52268;SDS011;38224;50.950;4.100;2022-10-16T15:57:01;6.27;;;2.50;;
52268;SDS011;38224;50.950;4.100;2022-10-16T15:59:26;7.70;;;2.23;;
52268;SDS011;38224;50.950;4.100;2022-10-16T16:01:51;10.47;;;2.20;;
52268;SDS011;38224;50.950;4.100;2022-10-16T16:04:17;3.72;;;1.67;;
52268;SDS011;38224;50.950;4.100;2022-10-16T16:06:43;9.85;;;2.00;;
52268;SDS011;38224;50.950;4.100;2022-10-16T16:09:10;7.65;;;2.60;;
52268;SDS011;38224;50.950;4.100;2022-10-16T16:11:35;6.32;;;2.60;;
52268;SDS011;38224;50.950;4.100;2022-10-16T16:14:03;5.47;;;2.75;;
52268;SDS011;38224;50.950;4.100;2022-10-16T16:16:28;8.13;;;3.30;;
52268;SDS011;38224;50.950;4.100;2022-10-16T16:18:54;8.80;;;3.03;;
52268;SDS011;38224;50.950;4.100;2022-10-16T16:21:20;7.28;;;2.53;;
52268;SDS011;38224;50.950;4.100;2022-10-16T16:23:45;13.48;;;3.17;;
52268;SDS011;38224;50.950;4.100;2022-10-16T16:26:11;14.57;;;3.07;;
52268;SDS011;38224;50.950;4.100;2022-10-16T16:28:37;7.47;;;2.83;;
52268;SDS011;38224;50.950;4.100;2022-10-16T16:31:03;9.57;;;2.95;;
52268;SDS011;38224;50.950;4.100;2022-10-16T16:33:28;5.97;;;2.30;;
52268;SDS011;38224;50.950;4.100;2022-10-16T16:35:59;6.30;;;3.08;;
52268;SDS011;38224;50.950;4.100;2022-10-16T16:38:25;8.82;;;3.00;;
52268;SDS011;38224;50.950;4.100;2022-10-16T16:40:52;8.75;;;2.80;;